首页
METAR-TAF:

METAR-TAF

机场 :

維泰博, 意大利

纬度: 42-26N, 经度: 012-03E, 海拔: 300米

当前天气观测

该预报发布于1小时和35分钟前的17:55 UTC
风速7节,风向南转西南
温度 11°C
湿度 82%
气压 1022 hPa
能见度10公里或以上
散云层高于2000英尺
小雨

METAR: LIRV 101755Z 21007KT 9999 -RA SCT020 11/08 Q1022 RMK OVC BKN060 MON E SE CLD CIME ABB SLW VIS MIN 9999 WIND THR04/////KT BLU

时间: 21:30 (19:30 UTC)

预报

该预报发布于5小时和30分钟前的14:00 UTC
预报有效从10日的 15点(UTC)到 10日的 24点(UTC)
风速8节,风向南转南东
能见度10公里或以上
散云层高于3000英尺
短暂存在
从 10日的 15点(UTC)到 10日的 21点(UTC)
多云层高于3500英尺

TAF: LIRV 101400Z 1015/1024 16008KT 9999 SCT030 TEMPO 1015/1021 RA BKN035

超过4000个机场的气象观测和天气预报(METAR&TAF报告)。

可查询的气象台以黄色和红色小点在地图上表示。

将鼠标移到小点上方,可查看气象台名称。

然后点击查看天气观测和预报。

如需切换地图:点击带黑十字的绿色按钮放大地图;点击带横线的绿色按钮缩小地图;或者点击绿色箭头查看邻近地区的地图。


METAR-TAF: